Terminal Aerodrome Forecast
Issued by NWS

Home | Current Version | Previous Version | Text Only | Print | Product List | Glossary On
Versions: 1 2 3 4 5 6 7 8 9 10 11 12 13 14 15 16 17 18 19 20
000
FTUS46 KSTO 251800 AAA
TAFSMF
TAF AMD
KSMF 251821Z 2518/2618 32005KT P6SM SCT015
     FM252000 31007KT P6SM VCSH SCT025
     FM252300 30008KT P6SM SCT035
     FM260200 21007KT P6SM SCT050=

USA.gov is the U.S. government's official web portal to all federal, state and local government web resources and services.